sensor_id;sensor_type;location;lat;lon;timestamp;temperature;humidity
5210;DHT22;2624;48.048;11.706;2023-04-10T00:01:35;3.80;99.90
5210;DHT22;2624;48.048;11.706;2023-04-10T00:06:38;3.90;99.90
5210;DHT22;2624;48.048;11.706;2023-04-10T00:11:41;4.00;99.90
5210;DHT22;2624;48.048;11.706;2023-04-10T00:16:44;4.00;99.90
5210;DHT22;2624;48.048;11.706;2023-04-10T00:21:45;4.20;99.90
5210;DHT22;2624;48.048;11.706;2023-04-10T00:26:47;4.30;99.90
5210;DHT22;2624;48.048;11.706;2023-04-10T00:31:50;3.50;99.90
5210;DHT22;2624;48.048;11.706;2023-04-10T00:36:52;3.90;99.90
5210;DHT22;2624;48.048;11.706;2023-04-10T00:41:54;4.10;99.90
5210;DHT22;2624;48.048;11.706;2023-04-10T00:46:58;4.00;99.90
5210;DHT22;2624;48.048;11.706;2023-04-10T00:52:00;3.40;99.90
5210;DHT22;2624;48.048;11.706;2023-04-10T00:57:02;2.90;99.90
5210;DHT22;2624;48.048;11.706;2023-04-10T01:02:05;3.70;99.90
5210;DHT22;2624;48.048;11.706;2023-04-10T01:07:14;4.00;99.90
5210;DHT22;2624;48.048;11.706;2023-04-10T01:12:29;3.30;99.90
5210;DHT22;2624;48.048;11.706;2023-04-10T01:17:41;2.90;99.90
5210;DHT22;2624;48.048;11.706;2023-04-10T01:23:08;2.90;99.90
5210;DHT22;2624;48.048;11.706;2023-04-10T01:28:23;2.80;99.90
5210;DHT22;2624;48.048;11.706;2023-04-10T01:33:39;3.40;99.90
5210;DHT22;2624;48.048;11.706;2023-04-10T01:38:45;3.80;99.90
5210;DHT22;2624;48.048;11.706;2023-04-10T01:43:50;3.60;99.90
5210;DHT22;2624;48.048;11.706;2023-04-10T01:48:54;3.00;99.90
5210;DHT22;2624;48.048;11.706;2023-04-10T01:53:57;3.20;99.90
5210;DHT22;2624;48.048;11.706;2023-04-10T01:58:59;2.90;99.90
5210;DHT22;2624;48.048;11.706;2023-04-10T02:04:04;3.00;99.90
5210;DHT22;2624;48.048;11.706;2023-04-10T02:09:14;2.80;99.90
5210;DHT22;2624;48.048;11.706;2023-04-10T02:14:19;2.80;99.90
5210;DHT22;2624;48.048;11.706;2023-04-10T02:19:26;2.60;99.90
5210;DHT22;2624;48.048;11.706;2023-04-10T02:24:28;3.20;99.90
5210;DHT22;2624;48.048;11.706;2023-04-10T02:29:30;3.50;99.90
5210;DHT22;2624;48.048;11.706;2023-04-10T02:34:33;2.60;99.90
5210;DHT22;2624;48.048;11.706;2023-04-10T02:39:35;2.20;99.90
5210;DHT22;2624;48.048;11.706;2023-04-10T02:44:37;2.80;99.90
5210;DHT22;2624;48.048;11.706;2023-04-10T02:49:41;3.20;99.90
5210;DHT22;2624;48.048;11.706;2023-04-10T02:54:43;2.80;99.90
5210;DHT22;2624;48.048;11.706;2023-04-10T02:59:48;2.80;99.90
5210;DHT22;2624;48.048;11.706;2023-04-10T03:04:51;3.20;99.90
5210;DHT22;2624;48.048;11.706;2023-04-10T03:09:53;3.20;99.90
5210;DHT22;2624;48.048;11.706;2023-04-10T03:14:55;3.30;99.90
5210;DHT22;2624;48.048;11.706;2023-04-10T03:19:58;3.20;99.90
5210;DHT22;2624;48.048;11.706;2023-04-10T03:25:00;3.20;99.90
5210;DHT22;2624;48.048;11.706;2023-04-10T03:30:02;3.20;99.90
5210;DHT22;2624;48.048;11.706;2023-04-10T03:35:06;3.20;99.90
5210;DHT22;2624;48.048;11.706;2023-04-10T03:40:09;3.20;99.90
5210;DHT22;2624;48.048;11.706;2023-04-10T03:45:11;3.10;99.90
5210;DHT22;2624;48.048;11.706;2023-04-10T03:50:15;2.70;99.90
5210;DHT22;2624;48.048;11.706;2023-04-10T03:55:16;2.70;99.90
5210;DHT22;2624;48.048;11.706;2023-04-10T04:00:19;2.40;99.90
5210;DHT22;2624;48.048;11.706;2023-04-10T04:05:23;2.20;99.90
5210;DHT22;2624;48.048;11.706;2023-04-10T04:10:25;1.90;99.90
5210;DHT22;2624;48.048;11.706;2023-04-10T04:15:27;2.80;99.90
5210;DHT22;2624;48.048;11.706;2023-04-10T04:20:30;3.00;99.90
5210;DHT22;2624;48.048;11.706;2023-04-10T04:25:32;2.80;99.90
5210;DHT22;2624;48.048;11.706;2023-04-10T04:30:34;2.00;99.90
5210;DHT22;2624;48.048;11.706;2023-04-10T04:35:37;1.90;99.90
5210;DHT22;2624;48.048;11.706;2023-04-10T04:40:38;1.90;99.90
5210;DHT22;2624;48.048;11.706;2023-04-10T04:45:40;1.90;99.90
5210;DHT22;2624;48.048;11.706;2023-04-10T04:50:43;1.90;99.90
5210;DHT22;2624;48.048;11.706;2023-04-10T04:55:45;2.00;99.90
5210;DHT22;2624;48.048;11.706;2023-04-10T05:00:47;2.30;99.90
5210;DHT22;2624;48.048;11.706;2023-04-10T05:05:50;2.30;99.90
5210;DHT22;2624;48.048;11.706;2023-04-10T05:10:52;2.10;99.90
5210;DHT22;2624;48.048;11.706;2023-04-10T05:15:53;2.00;99.90
5210;DHT22;2624;48.048;11.706;2023-04-10T05:20:56;2.10;99.90
5210;DHT22;2624;48.048;11.706;2023-04-10T05:25:58;2.60;99.90
5210;DHT22;2624;48.048;11.706;2023-04-10T05:31:00;2.70;99.90
5210;DHT22;2624;48.048;11.706;2023-04-10T05:36:04;2.20;99.90
5210;DHT22;2624;48.048;11.706;2023-04-10T05:41:06;1.70;99.90
5210;DHT22;2624;48.048;11.706;2023-04-10T05:46:08;2.00;99.90
5210;DHT22;2624;48.048;11.706;2023-04-10T05:51:12;2.20;99.90
5210;DHT22;2624;48.048;11.706;2023-04-10T05:56:14;2.00;99.90
5210;DHT22;2624;48.048;11.706;2023-04-10T06:01:16;1.80;99.90
5210;DHT22;2624;48.048;11.706;2023-04-10T06:06:19;2.00;99.90
5210;DHT22;2624;48.048;11.706;2023-04-10T06:11:21;2.00;99.90
5210;DHT22;2624;48.048;11.706;2023-04-10T06:16:24;2.20;99.90
5210;DHT22;2624;48.048;11.706;2023-04-10T06:21:27;2.30;99.90
5210;DHT22;2624;48.048;11.706;2023-04-10T06:26:29;2.20;99.90
5210;DHT22;2624;48.048;11.706;2023-04-10T06:31:32;2.20;99.90
5210;DHT22;2624;48.048;11.706;2023-04-10T06:36:35;2.20;99.90
5210;DHT22;2624;48.048;11.706;2023-04-10T06:41:37;2.60;99.90
5210;DHT22;2624;48.048;11.706;2023-04-10T06:46:39;2.50;99.90
5210;DHT22;2624;48.048;11.706;2023-04-10T06:51:43;2.70;99.90
5210;DHT22;2624;48.048;11.706;2023-04-10T06:56:47;2.90;99.90
5210;DHT22;2624;48.048;11.706;2023-04-10T07:01:49;3.00;99.90
5210;DHT22;2624;48.048;11.706;2023-04-10T07:06:52;3.30;99.90
5210;DHT22;2624;48.048;11.706;2023-04-10T07:11:54;3.60;99.90
5210;DHT22;2624;48.048;11.706;2023-04-10T07:16:55;3.70;99.90
5210;DHT22;2624;48.048;11.706;2023-04-10T07:21:59;4.00;99.90
5210;DHT22;2624;48.048;11.706;2023-04-10T07:27:00;4.20;99.90
5210;DHT22;2624;48.048;11.706;2023-04-10T07:32:03;4.40;99.90
5210;DHT22;2624;48.048;11.706;2023-04-10T07:37:06;4.60;99.90
5210;DHT22;2624;48.048;11.706;2023-04-10T07:42:09;4.70;99.90
5210;DHT22;2624;48.048;11.706;2023-04-10T07:47:11;5.00;99.90
5210;DHT22;2624;48.048;11.706;2023-04-10T07:52:14;5.10;99.90
5210;DHT22;2624;48.048;11.706;2023-04-10T07:57:16;5.30;99.90
5210;DHT22;2624;48.048;11.706;2023-04-10T08:02:17;5.40;99.90
5210;DHT22;2624;48.048;11.706;2023-04-10T08:07:21;5.60;99.90
5210;DHT22;2624;48.048;11.706;2023-04-10T08:12:22;5.80;99.90
5210;DHT22;2624;48.048;11.706;2023-04-10T08:17:24;5.70;99.90
5210;DHT22;2624;48.048;11.706;2023-04-10T08:22:27;5.60;99.90
5210;DHT22;2624;48.048;11.706;2023-04-10T08:27:29;6.00;99.90
5210;DHT22;2624;48.048;11.706;2023-04-10T08:32:31;6.50;99.90
5210;DHT22;2624;48.048;11.706;2023-04-10T08:37:34;6.60;99.90
5210;DHT22;2624;48.048;11.706;2023-04-10T08:42:36;7.00;99.90
5210;DHT22;2624;48.048;11.706;2023-04-10T08:47:37;7.00;99.90
5210;DHT22;2624;48.048;11.706;2023-04-10T08:52:44;6.80;99.90
5210;DHT22;2624;48.048;11.706;2023-04-10T08:57:47;7.10;99.90
5210;DHT22;2624;48.048;11.706;2023-04-10T09:02:49;6.80;99.90
5210;DHT22;2624;48.048;11.706;2023-04-10T09:07:56;7.50;99.90
5210;DHT22;2624;48.048;11.706;2023-04-10T09:12:57;7.90;99.90
5210;DHT22;2624;48.048;11.706;2023-04-10T09:18:01;8.10;99.90
5210;DHT22;2624;48.048;11.706;2023-04-10T09:23:18;8.30;99.90
5210;DHT22;2624;48.048;11.706;2023-04-10T09:28:20;8.50;99.90
5210;DHT22;2624;48.048;11.706;2023-04-10T09:33:23;8.40;99.90
5210;DHT22;2624;48.048;11.706;2023-04-10T09:38:28;8.60;99.90
5210;DHT22;2624;48.048;11.706;2023-04-10T09:43:30;9.00;99.90
5210;DHT22;2624;48.048;11.706;2023-04-10T09:48:31;9.00;99.90
5210;DHT22;2624;48.048;11.706;2023-04-10T09:53:47;9.20;99.90
5210;DHT22;2624;48.048;11.706;2023-04-10T09:58:50;9.10;99.90
5210;DHT22;2624;48.048;11.706;2023-04-10T10:03:53;9.70;99.90
5210;DHT22;2624;48.048;11.706;2023-04-10T10:08:59;9.60;99.90
5210;DHT22;2624;48.048;11.706;2023-04-10T10:14:03;9.90;99.90
5210;DHT22;2624;48.048;11.706;2023-04-10T10:19:11;10.20;99.90
5210;DHT22;2624;48.048;11.706;2023-04-10T10:24:15;10.10;99.90
5210;DHT22;2624;48.048;11.706;2023-04-10T10:29:19;10.20;99.90
5210;DHT22;2624;48.048;11.706;2023-04-10T10:34:21;10.10;99.90
5210;DHT22;2624;48.048;11.706;2023-04-10T10:39:30;10.20;99.90
5210;DHT22;2624;48.048;11.706;2023-04-10T10:44:43;10.70;99.90
5210;DHT22;2624;48.048;11.706;2023-04-10T10:49:53;10.60;99.90
5210;DHT22;2624;48.048;11.706;2023-04-10T10:54:57;10.50;99.90
5210;DHT22;2624;48.048;11.706;2023-04-10T10:59:58;10.90;99.90
5210;DHT22;2624;48.048;11.706;2023-04-10T11:05:00;10.90;99.90
5210;DHT22;2624;48.048;11.706;2023-04-10T11:10:04;10.90;99.90
5210;DHT22;2624;48.048;11.706;2023-04-10T11:15:06;11.50;96.80
5210;DHT22;2624;48.048;11.706;2023-04-10T11:20:09;11.90;98.40
5210;DHT22;2624;48.048;11.706;2023-04-10T11:25:12;12.20;95.60
5210;DHT22;2624;48.048;11.706;2023-04-10T11:30:27;12.10;97.00
5210;DHT22;2624;48.048;11.706;2023-04-10T11:35:30;11.90;99.30
5210;DHT22;2624;48.048;11.706;2023-04-10T11:40:34;12.10;99.20
5210;DHT22;2624;48.048;11.706;2023-04-10T11:45:36;12.60;94.30
5210;DHT22;2624;48.048;11.706;2023-04-10T11:50:37;12.60;92.20
5210;DHT22;2624;48.048;11.706;2023-04-10T11:55:40;12.60;95.50
5210;DHT22;2624;48.048;11.706;2023-04-10T12:00:42;12.40;97.80
5210;DHT22;2624;48.048;11.706;2023-04-10T12:05:45;12.70;95.70
5210;DHT22;2624;48.048;11.706;2023-04-10T12:10:48;12.80;94.80
5210;DHT22;2624;48.048;11.706;2023-04-10T12:15:50;12.80;96.50
5210;DHT22;2624;48.048;11.706;2023-04-10T12:20:52;13.10;94.90
5210;DHT22;2624;48.048;11.706;2023-04-10T12:26:08;13.00;95.60
5210;DHT22;2624;48.048;11.706;2023-04-10T12:31:10;13.20;94.00
5210;DHT22;2624;48.048;11.706;2023-04-10T12:36:21;13.40;95.70
5210;DHT22;2624;48.048;11.706;2023-04-10T12:41:27;13.50;94.70
5210;DHT22;2624;48.048;11.706;2023-04-10T12:46:29;13.60;92.20
5210;DHT22;2624;48.048;11.706;2023-04-10T12:51:47;13.40;95.10
5210;DHT22;2624;48.048;11.706;2023-04-10T12:56:50;13.70;95.30
5210;DHT22;2624;48.048;11.706;2023-04-10T13:01:53;13.70;93.10
5210;DHT22;2624;48.048;11.706;2023-04-10T13:06:55;13.80;90.80
5210;DHT22;2624;48.048;11.706;2023-04-10T13:11:58;13.60;93.30
5210;DHT22;2624;48.048;11.706;2023-04-10T13:17:01;13.70;94.00
5210;DHT22;2624;48.048;11.706;2023-04-10T13:22:02;13.70;92.80
5210;DHT22;2624;48.048;11.706;2023-04-10T13:27:05;13.50;94.70
5210;DHT22;2624;48.048;11.706;2023-04-10T13:32:09;13.30;95.30
5210;DHT22;2624;48.048;11.706;2023-04-10T13:37:10;13.80;92.00
5210;DHT22;2624;48.048;11.706;2023-04-10T13:42:14;14.00;91.50
5210;DHT22;2624;48.048;11.706;2023-04-10T13:47:16;14.10;90.00
5210;DHT22;2624;48.048;11.706;2023-04-10T13:52:17;14.10;91.40
5210;DHT22;2624;48.048;11.706;2023-04-10T13:57:21;14.20;92.20
5210;DHT22;2624;48.048;11.706;2023-04-10T14:02:22;14.30;92.00
5210;DHT22;2624;48.048;11.706;2023-04-10T14:07:24;14.20;90.90
5210;DHT22;2624;48.048;11.706;2023-04-10T14:12:27;14.20;87.60
5210;DHT22;2624;48.048;11.706;2023-04-10T14:17:29;14.10;87.70
5210;DHT22;2624;48.048;11.706;2023-04-10T14:22:31;14.10;91.00
5210;DHT22;2624;48.048;11.706;2023-04-10T14:27:34;14.00;90.30
5210;DHT22;2624;48.048;11.706;2023-04-10T14:32:36;14.10;91.00
5210;DHT22;2624;48.048;11.706;2023-04-10T14:37:38;14.00;90.90
5210;DHT22;2624;48.048;11.706;2023-04-10T14:42:41;14.00;90.00
5210;DHT22;2624;48.048;11.706;2023-04-10T14:47:43;13.70;94.60
5210;DHT22;2624;48.048;11.706;2023-04-10T14:52:45;13.80;93.70
5210;DHT22;2624;48.048;11.706;2023-04-10T14:57:48;13.80;91.50
5210;DHT22;2624;48.048;11.706;2023-04-10T15:02:50;13.80;91.10
5210;DHT22;2624;48.048;11.706;2023-04-10T15:07:51;13.70;91.30
5210;DHT22;2624;48.048;11.706;2023-04-10T15:12:54;13.80;90.10
5210;DHT22;2624;48.048;11.706;2023-04-10T15:17:56;13.70;91.50
5210;DHT22;2624;48.048;11.706;2023-04-10T15:22:58;13.60;90.80
5210;DHT22;2624;48.048;11.706;2023-04-10T15:28:02;13.70;90.00
5210;DHT22;2624;48.048;11.706;2023-04-10T15:33:04;13.60;90.40
5210;DHT22;2624;48.048;11.706;2023-04-10T15:38:06;13.50;91.10
5210;DHT22;2624;48.048;11.706;2023-04-10T15:43:09;13.50;93.00
5210;DHT22;2624;48.048;11.706;2023-04-10T15:48:11;13.40;93.70
5210;DHT22;2624;48.048;11.706;2023-04-10T15:53:12;13.30;93.00
5210;DHT22;2624;48.048;11.706;2023-04-10T15:58:16;13.20;94.10
5210;DHT22;2624;48.048;11.706;2023-04-10T16:03:18;13.10;94.90
5210;DHT22;2624;48.048;11.706;2023-04-10T16:08:20;13.10;94.10
5210;DHT22;2624;48.048;11.706;2023-04-10T16:13:25;13.10;92.30
5210;DHT22;2624;48.048;11.706;2023-04-10T16:18:27;13.10;94.30
5210;DHT22;2624;48.048;11.706;2023-04-10T16:23:28;13.00;94.50
5210;DHT22;2624;48.048;11.706;2023-04-10T16:28:32;12.80;92.60
5210;DHT22;2624;48.048;11.706;2023-04-10T16:33:33;12.70;93.00
5210;DHT22;2624;48.048;11.706;2023-04-10T16:38:35;12.70;94.10
5210;DHT22;2624;48.048;11.706;2023-04-10T16:43:38;12.60;94.20
5210;DHT22;2624;48.048;11.706;2023-04-10T16:48:40;12.50;93.90
5210;DHT22;2624;48.048;11.706;2023-04-10T16:53:42;12.50;93.80
5210;DHT22;2624;48.048;11.706;2023-04-10T16:58:46;12.40;94.70
5210;DHT22;2624;48.048;11.706;2023-04-10T17:03:47;12.40;95.00
5210;DHT22;2624;48.048;11.706;2023-04-10T17:08:49;12.40;95.20
5210;DHT22;2624;48.048;11.706;2023-04-10T17:13:52;12.30;95.70
5210;DHT22;2624;48.048;11.706;2023-04-10T17:18:54;12.30;96.70
5210;DHT22;2624;48.048;11.706;2023-04-10T17:23:56;12.20;96.20
5210;DHT22;2624;48.048;11.706;2023-04-10T17:28:59;12.10;96.50
5210;DHT22;2624;48.048;11.706;2023-04-10T17:34:01;12.00;97.10
5210;DHT22;2624;48.048;11.706;2023-04-10T17:39:03;11.80;96.50
5210;DHT22;2624;48.048;11.706;2023-04-10T17:44:06;11.70;96.40
5210;DHT22;2624;48.048;11.706;2023-04-10T17:49:08;11.70;96.50
5210;DHT22;2624;48.048;11.706;2023-04-10T17:54:09;11.50;96.90
5210;DHT22;2624;48.048;11.706;2023-04-10T17:59:13;11.40;96.80
5210;DHT22;2624;48.048;11.706;2023-04-10T18:04:14;11.40;97.00
5210;DHT22;2624;48.048;11.706;2023-04-10T18:09:16;11.30;97.30
5210;DHT22;2624;48.048;11.706;2023-04-10T18:14:19;11.20;97.10
5210;DHT22;2624;48.048;11.706;2023-04-10T18:19:21;11.10;97.30
5210;DHT22;2624;48.048;11.706;2023-04-10T18:24:23;11.10;97.40
5210;DHT22;2624;48.048;11.706;2023-04-10T18:29:27;10.90;97.60
5210;DHT22;2624;48.048;11.706;2023-04-10T18:34:29;10.90;97.80
5210;DHT22;2624;48.048;11.706;2023-04-10T18:39:31;10.80;98.30
5210;DHT22;2624;48.048;11.706;2023-04-10T18:44:36;10.70;98.80
5210;DHT22;2624;48.048;11.706;2023-04-10T18:49:38;10.50;99.20
5210;DHT22;2624;48.048;11.706;2023-04-10T18:54:42;10.50;99.60
5210;DHT22;2624;48.048;11.706;2023-04-10T18:59:46;10.40;99.60
5210;DHT22;2624;48.048;11.706;2023-04-10T19:04:47;10.50;99.70
5210;DHT22;2624;48.048;11.706;2023-04-10T19:09:49;10.40;99.80
5210;DHT22;2624;48.048;11.706;2023-04-10T19:14:52;10.50;99.90
5210;DHT22;2624;48.048;11.706;2023-04-10T19:19:54;10.50;99.90
5210;DHT22;2624;48.048;11.706;2023-04-10T19:24:56;10.40;99.90
5210;DHT22;2624;48.048;11.706;2023-04-10T19:29:59;10.40;99.90
5210;DHT22;2624;48.048;11.706;2023-04-10T19:35:01;10.30;99.90
5210;DHT22;2624;48.048;11.706;2023-04-10T19:40:04;10.20;99.90
5210;DHT22;2624;48.048;11.706;2023-04-10T19:45:08;10.10;99.90
5210;DHT22;2624;48.048;11.706;2023-04-10T19:50:10;10.00;99.90
5210;DHT22;2624;48.048;11.706;2023-04-10T19:55:12;9.90;99.90
5210;DHT22;2624;48.048;11.706;2023-04-10T20:00:16;9.90;99.90
5210;DHT22;2624;48.048;11.706;2023-04-10T20:05:17;10.00;99.90
5210;DHT22;2624;48.048;11.706;2023-04-10T20:10:19;10.10;99.90
5210;DHT22;2624;48.048;11.706;2023-04-10T20:15:23;10.20;99.90
5210;DHT22;2624;48.048;11.706;2023-04-10T20:20:24;10.10;99.90
5210;DHT22;2624;48.048;11.706;2023-04-10T20:25:26;9.90;99.90
5210;DHT22;2624;48.048;11.706;2023-04-10T20:30:29;10.00;99.90
5210;DHT22;2624;48.048;11.706;2023-04-10T20:35:31;9.80;99.90
5210;DHT22;2624;48.048;11.706;2023-04-10T20:40:33;9.80;99.90
5210;DHT22;2624;48.048;11.706;2023-04-10T20:45:36;9.70;99.90
5210;DHT22;2624;48.048;11.706;2023-04-10T20:50:41;9.70;99.90
5210;DHT22;2624;48.048;11.706;2023-04-10T20:55:43;9.70;99.90
5210;DHT22;2624;48.048;11.706;2023-04-10T21:00:46;9.70;99.90
5210;DHT22;2624;48.048;11.706;2023-04-10T21:05:47;9.50;99.90
5210;DHT22;2624;48.048;11.706;2023-04-10T21:10:49;9.40;99.90
5210;DHT22;2624;48.048;11.706;2023-04-10T21:15:52;9.30;99.90
5210;DHT22;2624;48.048;11.706;2023-04-10T21:20:54;9.30;99.90
5210;DHT22;2624;48.048;11.706;2023-04-10T21:25:56;9.30;99.90
5210;DHT22;2624;48.048;11.706;2023-04-10T21:30:59;9.20;99.90
5210;DHT22;2624;48.048;11.706;2023-04-10T21:36:00;9.30;99.90
5210;DHT22;2624;48.048;11.706;2023-04-10T21:41:02;9.40;99.90
5210;DHT22;2624;48.048;11.706;2023-04-10T21:46:06;9.20;99.90
5210;DHT22;2624;48.048;11.706;2023-04-10T21:51:08;9.10;99.90
5210;DHT22;2624;48.048;11.706;2023-04-10T21:56:10;9.10;99.90
5210;DHT22;2624;48.048;11.706;2023-04-10T22:01:13;9.00;99.90
5210;DHT22;2624;48.048;11.706;2023-04-10T22:06:15;9.00;99.90
5210;DHT22;2624;48.048;11.706;2023-04-10T22:11:17;8.90;99.90
5210;DHT22;2624;48.048;11.706;2023-04-10T22:16:20;8.80;99.90
5210;DHT22;2624;48.048;11.706;2023-04-10T22:21:22;8.80;99.90
5210;DHT22;2624;48.048;11.706;2023-04-10T22:26:24;8.80;99.90
5210;DHT22;2624;48.048;11.706;2023-04-10T22:31:27;8.70;99.90
5210;DHT22;2624;48.048;11.706;2023-04-10T22:36:32;8.60;99.90
5210;DHT22;2624;48.048;11.706;2023-04-10T22:41:34;8.50;99.90
5210;DHT22;2624;48.048;11.706;2023-04-10T22:46:37;8.60;99.90
5210;DHT22;2624;48.048;11.706;2023-04-10T22:51:38;8.50;99.90
5210;DHT22;2624;48.048;11.706;2023-04-10T22:56:41;8.60;99.90
5210;DHT22;2624;48.048;11.706;2023-04-10T23:01:45;8.70;99.90
5210;DHT22;2624;48.048;11.706;2023-04-10T23:06:47;8.60;99.90
5210;DHT22;2624;48.048;11.706;2023-04-10T23:11:49;8.60;99.90
5210;DHT22;2624;48.048;11.706;2023-04-10T23:16:52;8.60;99.90
5210;DHT22;2624;48.048;11.706;2023-04-10T23:21:54;8.60;99.90
5210;DHT22;2624;48.048;11.706;2023-04-10T23:26:55;8.60;99.90
5210;DHT22;2624;48.048;11.706;2023-04-10T23:31:58;8.60;99.90
5210;DHT22;2624;48.048;11.706;2023-04-10T23:37:00;8.60;99.90
5210;DHT22;2624;48.048;11.706;2023-04-10T23:42:02;8.50;99.90
5210;DHT22;2624;48.048;11.706;2023-04-10T23:47:05;8.50;99.90
5210;DHT22;2624;48.048;11.706;2023-04-10T23:52:08;8.50;99.90
5210;DHT22;2624;48.048;11.706;2023-04-10T23:57:10;8.50;99.90
